createdAt,value
2018-07-05T00:00:08.243Z,952.53
2018-07-05T00:02:34.561Z,952.51
2018-07-05T00:05:00.873Z,952.44
2018-07-05T00:07:27.203Z,952.44
2018-07-05T00:09:53.545Z,952.45
2018-07-05T00:12:19.862Z,952.40
2018-07-05T00:14:46.178Z,952.47
2018-07-05T00:17:12.500Z,952.49
2018-07-05T00:19:38.813Z,952.44
2018-07-05T00:22:05.133Z,952.47
2018-07-05T00:24:31.529Z,952.48
2018-07-05T00:26:57.841Z,952.54
2018-07-05T00:29:24.165Z,952.52
2018-07-05T00:31:50.477Z,952.61
2018-07-05T00:34:16.794Z,952.51
2018-07-05T00:36:43.114Z,952.47
2018-07-05T00:39:09.436Z,952.48
2018-07-05T00:41:35.754Z,952.46
2018-07-05T00:44:02.078Z,952.47
2018-07-05T00:46:28.386Z,952.47
2018-07-05T00:48:54.809Z,952.46
2018-07-05T00:51:21.080Z,952.51
2018-07-05T00:53:47.400Z,952.43
2018-07-05T00:56:13.747Z,952.42
2018-07-05T00:58:40.068Z,952.40
2018-07-05T01:01:06.402Z,952.44
2018-07-05T01:03:32.711Z,952.45
2018-07-05T01:05:59.030Z,952.39
2018-07-05T01:08:25.347Z,952.40
2018-07-05T01:10:51.669Z,952.36
2018-07-05T01:13:17.984Z,952.28
2018-07-05T01:15:44.297Z,952.32
2018-07-05T01:18:10.622Z,952.27
2018-07-05T01:20:36.940Z,952.27
2018-07-05T01:23:03.263Z,952.32
2018-07-05T01:25:29.581Z,952.32
2018-07-05T01:27:55.915Z,952.32
2018-07-05T01:30:22.211Z,952.31
2018-07-05T01:32:48.534Z,952.33
2018-07-05T01:35:14.856Z,952.37
2018-07-05T01:37:41.173Z,952.37
2018-07-05T01:40:07.502Z,952.37
2018-07-05T01:42:33.833Z,952.34
2018-07-05T01:45:00.161Z,952.41
2018-07-05T01:47:26.531Z,952.47
2018-07-05T01:49:52.849Z,952.40
2018-07-05T01:52:19.161Z,952.43
2018-07-05T01:54:45.482Z,952.46
2018-07-05T01:57:11.799Z,952.47
2018-07-05T01:59:38.114Z,952.44
2018-07-05T02:02:04.435Z,952.40
2018-07-05T02:04:30.753Z,952.42
2018-07-05T02:06:57.068Z,952.43
2018-07-05T02:09:23.388Z,952.38
2018-07-05T02:11:49.704Z,952.39
2018-07-05T02:14:16.025Z,952.33
2018-07-05T02:16:42.340Z,952.32
2018-07-05T02:19:08.655Z,952.36
2018-07-05T02:21:34.980Z,952.33
2018-07-05T02:24:01.292Z,952.38
2018-07-05T02:26:27.618Z,952.31
2018-07-05T02:28:53.937Z,952.36
2018-07-05T02:31:20.247Z,952.47
2018-07-05T02:33:46.567Z,952.43
2018-07-05T02:36:12.884Z,952.44
2018-07-05T02:38:39.198Z,952.56
2018-07-05T02:41:05.519Z,952.61
2018-07-05T02:43:31.843Z,952.59
2018-07-05T02:45:58.183Z,952.66
2018-07-05T02:48:24.495Z,952.62
2018-07-05T02:50:50.816Z,952.58
2018-07-05T02:53:17.146Z,952.55
2018-07-05T02:55:43.472Z,952.55
2018-07-05T02:58:09.789Z,952.57
2018-07-05T03:00:36.103Z,952.64
2018-07-05T03:03:02.424Z,952.63
2018-07-05T03:05:28.740Z,952.54
2018-07-05T03:07:55.063Z,952.52
2018-07-05T03:10:21.375Z,952.54
2018-07-05T03:12:47.696Z,952.48
2018-07-05T03:15:14.006Z,952.49
2018-07-05T03:17:40.360Z,952.57
2018-07-05T03:20:06.680Z,952.49
2018-07-05T03:22:32.995Z,952.50
2018-07-05T03:24:59.314Z,952.53
2018-07-05T03:27:25.632Z,952.53
2018-07-05T03:29:51.954Z,952.65
2018-07-05T03:32:18.265Z,952.63
2018-07-05T03:34:44.583Z,952.65
2018-07-05T03:37:10.898Z,952.65
2018-07-05T03:39:37.209Z,952.71
2018-07-05T03:42:03.531Z,952.61
2018-07-05T03:44:29.862Z,952.68
2018-07-05T03:46:56.185Z,952.68
2018-07-05T03:49:22.509Z,952.65
2018-07-05T03:51:48.832Z,952.74
2018-07-05T03:54:15.150Z,952.72
2018-07-05T03:56:41.469Z,952.73
2018-07-05T03:59:07.801Z,952.74
2018-07-05T04:01:34.117Z,952.71
2018-07-05T04:04:00.433Z,952.69
2018-07-05T04:06:26.757Z,952.76
2018-07-05T04:08:53.075Z,952.75
2018-07-05T04:11:19.428Z,952.74
2018-07-05T04:13:45.747Z,952.69
2018-07-05T04:16:12.062Z,952.72
2018-07-05T04:18:38.378Z,952.80
2018-07-05T04:21:04.695Z,952.76
2018-07-05T04:23:31.030Z,952.77
2018-07-05T04:25:57.342Z,952.75
2018-07-05T04:28:23.657Z,952.80
2018-07-05T04:30:49.971Z,952.75
2018-07-05T04:33:16.286Z,952.84
2018-07-05T04:35:42.772Z,952.82
2018-07-05T04:38:09.119Z,952.88
2018-07-05T04:40:35.441Z,952.88
2018-07-05T04:43:01.759Z,952.89
2018-07-05T04:45:28.073Z,953.00
2018-07-05T04:47:54.394Z,953.00
2018-07-05T04:50:20.705Z,952.99
2018-07-05T04:52:47.031Z,952.97
2018-07-05T04:55:13.347Z,953.03
2018-07-05T04:57:39.663Z,953.11
2018-07-05T05:00:05.987Z,953.08
2018-07-05T05:02:32.343Z,953.05
2018-07-05T05:04:58.618Z,953.06
2018-07-05T05:07:24.931Z,953.01
2018-07-05T05:09:51.247Z,953.03
2018-07-05T05:12:17.571Z,953.00
2018-07-05T05:14:43.876Z,952.99
2018-07-05T05:17:10.196Z,953.02
2018-07-05T05:19:36.514Z,953.05
2018-07-05T05:22:02.829Z,952.95
2018-07-05T05:24:29.143Z,952.90
2018-07-05T05:26:55.475Z,952.92
2018-07-05T05:29:21.792Z,952.89
2018-07-05T05:31:48.105Z,952.93
2018-07-05T05:34:14.432Z,952.90
2018-07-05T05:36:40.779Z,952.93
2018-07-05T05:39:07.096Z,952.88
2018-07-05T05:41:33.405Z,952.88
2018-07-05T05:43:59.724Z,952.91
2018-07-05T05:46:26.039Z,952.92
2018-07-05T05:48:52.364Z,952.94
2018-07-05T05:51:18.692Z,952.97
2018-07-05T05:53:45.019Z,952.99
2018-07-05T05:56:11.328Z,953.01
2018-07-05T05:58:37.656Z,953.02
2018-07-05T06:01:04.003Z,952.98
2018-07-05T06:03:30.301Z,953.04
2018-07-05T06:05:56.615Z,953.01
2018-07-05T06:08:22.931Z,953.04
2018-07-05T06:10:49.245Z,953.03
2018-07-05T06:13:15.559Z,953.05
2018-07-05T06:15:41.879Z,953.03
2018-07-05T06:18:08.204Z,953.11
2018-07-05T06:20:34.528Z,953.07
2018-07-05T06:23:00.888Z,953.08
2018-07-05T06:25:27.238Z,953.07
2018-07-05T06:27:53.533Z,953.01
2018-07-05T06:30:19.851Z,953.08
2018-07-05T06:32:46.161Z,952.99
2018-07-05T06:35:12.524Z,952.97
2018-07-05T06:37:38.833Z,952.98
2018-07-05T06:40:05.147Z,952.94
2018-07-05T06:42:31.461Z,952.92
2018-07-05T06:44:57.773Z,952.89
2018-07-05T06:47:24.146Z,952.91
2018-07-05T06:49:50.410Z,952.89
2018-07-05T06:52:16.730Z,952.88
2018-07-05T06:54:43.044Z,952.84
2018-07-05T06:57:09.353Z,952.89
2018-07-05T06:59:35.672Z,952.85
2018-07-05T07:02:02.058Z,952.85
2018-07-05T07:04:28.369Z,952.87
2018-07-05T07:06:54.688Z,952.78
2018-07-05T07:09:21.019Z,952.80
2018-07-05T07:11:47.332Z,952.82
2018-07-05T07:14:13.656Z,952.79
2018-07-05T07:16:39.972Z,952.83
2018-07-05T07:19:06.282Z,952.79
2018-07-05T07:21:32.617Z,952.81
2018-07-05T07:23:58.936Z,952.71
2018-07-05T07:26:25.246Z,952.72
2018-07-05T07:28:51.561Z,952.75
2018-07-05T07:31:17.937Z,952.83
2018-07-05T07:33:44.226Z,952.70
2018-07-05T07:36:10.548Z,952.84
2018-07-05T07:38:36.865Z,952.77
2018-07-05T07:41:03.187Z,952.82
2018-07-05T07:43:29.501Z,952.80
2018-07-05T07:45:55.808Z,952.82
2018-07-05T07:48:22.124Z,952.76
2018-07-05T07:50:48.470Z,952.78
2018-07-05T07:53:14.787Z,952.77
2018-07-05T07:55:41.180Z,952.71
2018-07-05T07:58:07.522Z,952.71
2018-07-05T08:00:33.809Z,952.69
2018-07-05T08:03:00.121Z,952.68
2018-07-05T08:05:26.433Z,952.66
2018-07-05T08:07:52.801Z,952.65
2018-07-05T08:10:19.082Z,952.62
2018-07-05T08:12:45.397Z,952.59
2018-07-05T08:15:11.750Z,952.64
2018-07-05T08:17:38.064Z,952.65
2018-07-05T08:20:04.386Z,952.69
2018-07-05T08:22:30.701Z,952.63
2018-07-05T08:24:57.007Z,952.63
2018-07-05T08:27:23.356Z,952.70
2018-07-05T08:29:49.663Z,952.69
2018-07-05T08:32:15.979Z,952.66
2018-07-05T08:34:42.291Z,952.63
2018-07-05T08:37:08.612Z,952.65
2018-07-05T08:39:34.959Z,952.62
2018-07-05T08:42:01.271Z,952.59
2018-07-05T08:44:27.583Z,952.59
2018-07-05T08:46:53.890Z,952.59
2018-07-05T08:49:20.213Z,952.61
2018-07-05T08:51:46.556Z,952.62
2018-07-05T08:54:12.863Z,952.51
2018-07-05T08:56:39.179Z,952.57
2018-07-05T08:59:05.523Z,952.45
2018-07-05T09:01:31.851Z,952.41
2018-07-05T09:03:58.198Z,952.45
2018-07-05T09:06:24.514Z,952.38
2018-07-05T09:08:50.824Z,952.31
2018-07-05T09:11:17.158Z,952.40
2018-07-05T09:13:43.480Z,952.37
2018-07-05T09:16:09.820Z,952.30
2018-07-05T09:18:36.135Z,952.30
2018-07-05T09:21:02.445Z,952.22
2018-07-05T09:23:28.846Z,952.28
2018-07-05T09:25:55.083Z,952.26
2018-07-05T09:28:21.437Z,952.31
2018-07-05T09:30:47.744Z,952.30
2018-07-05T09:33:14.057Z,952.29
2018-07-05T09:35:40.375Z,952.23
2018-07-05T09:38:06.703Z,952.32
2018-07-05T09:40:33.044Z,952.24
2018-07-05T09:42:59.352Z,952.21
2018-07-05T09:45:25.659Z,952.22
2018-07-05T09:47:51.978Z,952.22
2018-07-05T09:50:18.392Z,952.19
2018-07-05T09:52:44.788Z,952.13
2018-07-05T09:55:11.058Z,952.08
2018-07-05T09:57:37.371Z,952.13
2018-07-05T10:00:03.685Z,952.12
2018-07-05T10:02:30.005Z,952.01
2018-07-05T10:04:56.363Z,952.02
2018-07-05T10:07:22.680Z,952.05
2018-07-05T10:09:48.991Z,952.04
2018-07-05T10:12:15.317Z,952.02
2018-07-05T10:14:41.622Z,951.99
2018-07-05T10:17:07.973Z,952.08
2018-07-05T10:19:34.278Z,952.02
2018-07-05T10:22:00.596Z,952.01
2018-07-05T10:24:26.919Z,952.07
2018-07-05T10:26:53.317Z,951.99
2018-07-05T10:29:19.598Z,952.01
2018-07-05T10:31:45.916Z,951.96
2018-07-05T10:34:12.229Z,951.99
2018-07-05T10:36:38.544Z,951.91
2018-07-05T10:39:04.857Z,952.00
2018-07-05T10:41:31.226Z,951.92
2018-07-05T10:43:57.541Z,951.91
2018-07-05T10:46:23.860Z,951.93
2018-07-05T10:48:50.185Z,951.92
2018-07-05T10:51:16.495Z,951.92
2018-07-05T10:53:42.805Z,951.89
2018-07-05T10:56:09.118Z,951.86
2018-07-05T10:58:35.433Z,951.83
2018-07-05T11:01:01.791Z,951.84
2018-07-05T11:03:28.060Z,951.85
2018-07-05T11:05:54.373Z,951.83
2018-07-05T11:08:20.732Z,951.91
2018-07-05T11:10:47.044Z,951.74
2018-07-05T11:13:13.362Z,951.77
2018-07-05T11:15:39.678Z,951.78
2018-07-05T11:18:05.995Z,951.72
2018-07-05T11:20:32.316Z,951.76
2018-07-05T11:22:58.630Z,951.71
2018-07-05T11:25:24.947Z,951.74
2018-07-05T11:27:51.289Z,951.63
2018-07-05T11:30:17.630Z,951.65
2018-07-05T11:32:43.928Z,951.61
2018-07-05T11:35:10.285Z,951.63
2018-07-05T11:37:36.591Z,951.67
2018-07-05T11:40:02.907Z,951.63
2018-07-05T11:42:29.272Z,951.55
2018-07-05T11:44:55.541Z,951.56
2018-07-05T11:47:21.862Z,951.54
2018-07-05T11:49:48.367Z,951.57
2018-07-05T11:52:14.759Z,951.53
2018-07-05T11:54:41.006Z,951.50
2018-07-05T11:57:07.317Z,951.49
2018-07-05T11:59:36.095Z,951.34
2018-07-05T12:02:02.478Z,951.39
2018-07-05T12:04:28.733Z,951.47
2018-07-05T12:06:55.054Z,951.44
2018-07-05T12:09:21.376Z,951.43
2018-07-05T12:11:47.693Z,951.37
2018-07-05T12:14:14.008Z,951.39
2018-07-05T12:16:40.332Z,951.37
2018-07-05T12:19:06.651Z,951.41
2018-07-05T12:21:32.991Z,951.43
2018-07-05T12:23:59.325Z,951.36
2018-07-05T12:26:25.619Z,951.35
2018-07-05T12:28:51.939Z,951.37
2018-07-05T12:31:18.261Z,951.38
2018-07-05T12:33:44.610Z,951.37
2018-07-05T12:36:10.935Z,951.32
2018-07-05T12:38:37.287Z,951.32
2018-07-05T12:41:03.597Z,951.29
2018-07-05T12:43:29.913Z,951.23
2018-07-05T12:45:56.227Z,951.19
2018-07-05T12:48:22.543Z,951.23
2018-07-05T12:50:48.864Z,951.20
2018-07-05T12:53:15.176Z,951.19
2018-07-05T12:55:41.535Z,951.24
2018-07-05T12:58:07.856Z,951.18
2018-07-05T13:00:34.167Z,951.14
2018-07-05T13:03:00.486Z,951.04
2018-07-05T13:05:26.792Z,951.02
2018-07-05T13:07:53.134Z,951.01
2018-07-05T13:10:19.451Z,950.98
2018-07-05T13:12:45.839Z,950.98
2018-07-05T13:15:12.106Z,950.94
2018-07-05T13:17:38.421Z,950.97
2018-07-05T13:20:04.731Z,950.96
2018-07-05T13:22:31.049Z,950.99
2018-07-05T13:24:57.366Z,950.97
2018-07-05T13:27:23.698Z,950.91
2018-07-05T13:29:50.019Z,950.86
2018-07-05T13:32:16.367Z,950.87
2018-07-05T13:34:42.676Z,950.85
2018-07-05T13:37:08.999Z,950.78
2018-07-05T13:39:35.356Z,950.77
2018-07-05T13:42:01.636Z,950.78
2018-07-05T13:44:27.953Z,950.79
2018-07-05T13:46:54.271Z,950.81
2018-07-05T13:49:20.609Z,950.90
2018-07-05T13:51:46.900Z,950.88
2018-07-05T13:54:13.258Z,950.80
2018-07-05T13:56:39.564Z,950.80
2018-07-05T13:59:05.882Z,950.85
2018-07-05T14:01:32.192Z,950.79
2018-07-05T14:03:58.507Z,950.93
2018-07-05T14:06:24.837Z,950.81
2018-07-05T14:08:51.149Z,950.86
2018-07-05T14:11:17.457Z,950.84
2018-07-05T14:13:43.767Z,950.87
2018-07-05T14:16:10.115Z,950.92
2018-07-05T14:18:36.428Z,950.86
2018-07-05T14:21:02.739Z,950.79
2018-07-05T14:23:29.084Z,950.81
2018-07-05T14:25:55.396Z,950.88
2018-07-05T14:28:21.719Z,950.82
2018-07-05T14:30:48.061Z,950.83
2018-07-05T14:33:14.373Z,950.78
2018-07-05T14:35:40.690Z,950.76
2018-07-05T14:38:06.999Z,950.74
2018-07-05T14:40:33.308Z,950.69
2018-07-05T14:42:59.624Z,950.72
2018-07-05T14:45:25.943Z,950.72
2018-07-05T14:47:55.690Z,950.66
2018-07-05T14:50:21.999Z,950.65
2018-07-05T14:52:48.427Z,950.70
2018-07-05T14:55:14.735Z,950.72
2018-07-05T14:57:41.054Z,950.59
2018-07-05T15:00:07.416Z,950.64
2018-07-05T15:02:33.723Z,950.62
2018-07-05T15:05:00.046Z,950.71
2018-07-05T15:07:26.362Z,950.68
2018-07-05T15:09:54.843Z,950.62
2018-07-05T15:12:26.066Z,950.63
2018-07-05T15:14:52.362Z,950.61
2018-07-05T15:17:18.676Z,950.64
2018-07-05T15:19:44.988Z,950.59
2018-07-05T15:22:11.361Z,950.62
2018-07-05T15:24:37.680Z,950.60
2018-07-05T15:27:04.007Z,950.59
2018-07-05T15:29:30.373Z,950.59
2018-07-05T15:31:56.704Z,950.59
2018-07-05T15:34:23.033Z,950.56
2018-07-05T15:36:49.356Z,950.61
2018-07-05T15:39:15.719Z,950.54
2018-07-05T15:41:42.029Z,950.58
2018-07-05T15:44:08.341Z,950.54
2018-07-05T15:46:34.859Z,950.54
2018-07-05T15:49:01.156Z,950.55
2018-07-05T15:51:27.471Z,950.55
2018-07-05T15:53:53.782Z,950.50
2018-07-05T15:56:20.102Z,950.52
2018-07-05T15:58:46.425Z,950.43
2018-07-05T16:01:12.914Z,950.43
2018-07-05T16:03:39.230Z,950.52
2018-07-05T16:06:05.528Z,950.45
2018-07-05T16:08:32.239Z,950.39
2018-07-05T16:10:58.543Z,950.46
2018-07-05T16:13:24.857Z,950.43
2018-07-05T16:15:51.169Z,950.45
2018-07-05T16:18:17.488Z,950.49
2018-07-05T16:20:43.799Z,950.46
2018-07-05T16:23:10.116Z,950.39
2018-07-05T16:25:36.443Z,950.47
2018-07-05T16:28:02.809Z,950.40
2018-07-05T16:30:29.119Z,950.41
2018-07-05T16:32:55.431Z,950.43
2018-07-05T16:35:21.781Z,950.43
2018-07-05T16:37:48.068Z,950.44
2018-07-05T16:40:14.395Z,950.39
2018-07-05T16:42:40.700Z,950.40
2018-07-05T16:45:07.013Z,950.51
2018-07-05T16:47:33.319Z,950.41
2018-07-05T16:49:59.654Z,950.49
2018-07-05T16:52:25.967Z,950.42
2018-07-05T16:54:52.367Z,950.45
2018-07-05T16:57:18.645Z,950.49
2018-07-05T16:59:44.964Z,950.50
2018-07-05T17:02:11.278Z,950.41
2018-07-05T17:04:37.590Z,950.48
2018-07-05T17:07:03.911Z,950.44
2018-07-05T17:09:30.260Z,950.46
2018-07-05T17:11:56.575Z,950.55
2018-07-05T17:14:22.894Z,950.50
2018-07-05T17:16:49.218Z,950.58
2018-07-05T17:19:15.528Z,950.47
2018-07-05T17:21:43.757Z,950.50
2018-07-05T17:24:08.340Z,950.45
2018-07-05T17:26:34.647Z,950.54
2018-07-05T17:29:00.972Z,950.52
2018-07-05T17:31:39.654Z,950.53
2018-07-05T17:33:58.979Z,950.45
2018-07-05T17:36:29.868Z,950.45
2018-07-05T17:38:56.220Z,950.48
2018-07-05T17:41:22.552Z,950.51
2018-07-05T17:43:49.424Z,950.46
2018-07-05T17:46:15.741Z,950.57
2018-07-05T17:48:42.050Z,950.45
2018-07-05T17:51:08.376Z,950.58
2018-07-05T17:53:34.687Z,950.54
2018-07-05T17:56:01.001Z,950.57
2018-07-05T17:58:27.333Z,950.55
2018-07-05T18:00:53.717Z,950.54
2018-07-05T18:03:20.050Z,950.53
2018-07-05T18:05:46.376Z,950.53
2018-07-05T18:08:12.689Z,950.52
2018-07-05T18:10:39.010Z,950.56
2018-07-05T18:13:05.355Z,950.49
2018-07-05T18:15:31.635Z,950.51
2018-07-05T18:17:57.948Z,950.51
2018-07-05T18:20:24.288Z,950.56
2018-07-05T18:22:50.572Z,950.61
2018-07-05T18:25:16.961Z,950.60
2018-07-05T18:27:43.411Z,950.59
2018-07-05T18:30:09.648Z,950.55
2018-07-05T18:32:35.963Z,950.59
2018-07-05T18:35:02.274Z,950.64
2018-07-05T18:37:28.592Z,950.64
2018-07-05T18:39:54.902Z,950.70
2018-07-05T18:42:21.209Z,950.74
2018-07-05T18:44:47.537Z,950.79
2018-07-05T18:47:13.896Z,950.84
2018-07-05T18:49:40.223Z,950.86
2018-07-05T18:52:06.534Z,950.86
2018-07-05T18:54:32.851Z,950.86
2018-07-05T18:56:59.160Z,950.91
2018-07-05T18:59:25.465Z,950.89
2018-07-05T19:01:51.784Z,950.88
2018-07-05T19:04:18.138Z,950.89
2018-07-05T19:06:44.421Z,950.88
2018-07-05T19:09:10.735Z,950.93
2018-07-05T19:11:37.048Z,950.94
2018-07-05T19:14:03.367Z,950.98
2018-07-05T19:16:29.865Z,950.96
2018-07-05T19:18:56.041Z,950.95
2018-07-05T19:21:22.349Z,950.95
2018-07-05T19:23:48.660Z,950.90
2018-07-05T19:26:14.998Z,950.93
2018-07-05T19:28:41.318Z,950.95
2018-07-05T19:31:07.648Z,950.97
2018-07-05T19:33:33.987Z,951.03
2018-07-05T19:36:00.323Z,950.94
2018-07-05T19:38:26.635Z,950.97
2018-07-05T19:40:52.944Z,950.90
2018-07-05T19:43:19.261Z,950.81
2018-07-05T19:45:45.574Z,950.94
2018-07-05T19:48:11.907Z,950.89
2018-07-05T19:50:38.223Z,950.97
2018-07-05T19:53:04.552Z,950.89
2018-07-05T19:55:30.871Z,950.98
2018-07-05T19:57:57.190Z,951.00
2018-07-05T20:00:23.533Z,950.94
2018-07-05T20:02:49.819Z,950.96
2018-07-05T20:05:16.137Z,950.91
2018-07-05T20:07:42.484Z,950.90
2018-07-05T20:10:08.840Z,950.91
2018-07-05T20:12:35.178Z,950.90
2018-07-05T20:15:01.506Z,950.92
2018-07-05T20:17:27.819Z,950.90
2018-07-05T20:19:54.141Z,950.93
2018-07-05T20:22:20.456Z,950.94
2018-07-05T20:24:46.777Z,950.96
2018-07-05T20:27:13.091Z,950.98
2018-07-05T20:29:39.399Z,950.95
2018-07-05T20:32:05.715Z,951.00
2018-07-05T20:34:32.033Z,950.94
2018-07-05T20:36:58.379Z,950.95
2018-07-05T20:39:24.688Z,950.99
2018-07-05T20:41:51.051Z,950.99
2018-07-05T20:44:17.313Z,950.98
2018-07-05T20:46:43.623Z,950.92
2018-07-05T20:49:09.940Z,950.98
2018-07-05T20:51:36.256Z,951.00
2018-07-05T20:54:02.567Z,950.95
2018-07-05T20:56:28.887Z,950.96
2018-07-05T20:58:55.218Z,950.94
2018-07-05T21:01:21.510Z,950.92
2018-07-05T21:03:47.822Z,950.98
2018-07-05T21:06:14.174Z,951.03
2018-07-05T21:08:40.519Z,951.01
2018-07-05T21:11:06.834Z,951.04
2018-07-05T21:13:33.180Z,951.01
2018-07-05T21:15:59.459Z,950.97
2018-07-05T21:18:25.782Z,950.95
2018-07-05T21:20:52.097Z,951.00
2018-07-05T21:23:18.418Z,951.04
2018-07-05T21:25:44.795Z,951.01
2018-07-05T21:28:11.151Z,951.04
2018-07-05T21:30:37.443Z,951.12
2018-07-05T21:33:03.751Z,951.05
2018-07-05T21:35:30.065Z,951.12
2018-07-05T21:37:56.420Z,951.03
2018-07-05T21:40:22.779Z,951.09
2018-07-05T21:42:49.053Z,951.12
2018-07-05T21:45:15.392Z,951.14
2018-07-05T21:47:41.752Z,951.19
2018-07-05T21:50:08.060Z,951.18
2018-07-05T21:52:34.394Z,951.09
2018-07-05T21:55:00.691Z,951.05
2018-07-05T21:57:27.009Z,951.08
2018-07-05T21:59:53.365Z,951.10
2018-07-05T22:02:19.680Z,951.11
2018-07-05T22:04:46.010Z,951.11
2018-07-05T22:07:12.373Z,951.07
2018-07-05T22:09:38.686Z,951.08
2018-07-05T22:12:05.007Z,951.09
2018-07-05T22:14:31.331Z,951.11
2018-07-05T22:16:57.712Z,951.11
2018-07-05T22:19:25.063Z,951.15
2018-07-05T22:21:50.330Z,951.05
2018-07-05T22:24:16.652Z,951.02
2018-07-05T22:26:42.962Z,951.05
2018-07-05T22:29:09.293Z,951.04
2018-07-05T22:31:35.643Z,950.98
2018-07-05T22:34:01.953Z,950.99
2018-07-05T22:36:28.320Z,950.96
2018-07-05T22:38:54.593Z,951.01
2018-07-05T22:41:20.939Z,951.03
2018-07-05T22:43:47.248Z,951.01
2018-07-05T22:46:13.566Z,951.04
2018-07-05T22:48:39.879Z,951.01
2018-07-05T22:51:06.189Z,951.06
2018-07-05T22:53:32.508Z,951.01
2018-07-05T22:55:58.821Z,950.96
2018-07-05T22:58:25.170Z,951.03
2018-07-05T23:00:51.478Z,951.06
2018-07-05T23:03:17.794Z,951.04
2018-07-05T23:05:44.106Z,950.98
2018-07-05T23:08:10.421Z,950.96
2018-07-05T23:10:36.735Z,950.96
2018-07-05T23:13:03.048Z,950.95
2018-07-05T23:15:29.363Z,950.96
2018-07-05T23:17:55.671Z,950.95
2018-07-05T23:20:21.989Z,950.93
2018-07-05T23:22:48.301Z,950.96
2018-07-05T23:25:14.615Z,950.96
2018-07-05T23:27:40.926Z,950.94
2018-07-05T23:30:07.276Z,951.01
2018-07-05T23:32:33.586Z,950.91
2018-07-05T23:34:59.931Z,950.93
2018-07-05T23:37:26.240Z,950.93
2018-07-05T23:39:52.593Z,950.90
2018-07-05T23:42:18.937Z,950.87
2018-07-05T23:44:45.294Z,950.88
2018-07-05T23:47:11.560Z,950.84
2018-07-05T23:49:37.872Z,950.89
2018-07-05T23:52:04.184Z,950.88
2018-07-05T23:54:30.526Z,950.80
2018-07-05T23:56:56.846Z,950.81
2018-07-05T23:59:23.200Z,950.82
